Date,TemperatureHighF,TemperatureAvgF,TemperatureLowF,DewpointHighF,DewpointAvgF,DewpointLowF,HumidityHigh,HumidityAvg,HumidityLow,PressureMaxIn,PressureMinIn,WindSpeedMaxMPH,WindSpeedAvgMPH,GustSpeedMaxMPH,PrecipitationSumIn
2013-2-1,16,13,8,13,10,4,89,87,84,30.30,29.77,22,7,23,0.00
2013-2-2,16,12,7,14,9,4,90,87,85,30.29,29.99,10,1,16,0.00
2013-2-3,20,16,14,17,13,9,95,87,81,29.99,29.82,14,3,18,0.00
2013-2-4,20,16,12,16,13,9,90,85,74,30.04,29.90,16,3,19,0.00
2013-2-5,25,21,16,20,17,13,92,86,79,29.94,29.84,7,1,10,0.00
2013-2-6,27,21,12,22,15,7,92,78,53,30.36,29.92,11,3,14,0.01
2013-2-7,43,25,9,27,17,6,88,73,51,30.36,30.01,9,1,15,0.15
2013-2-8,33,26,15,31,23,11,93,87,78,30.12,29.74,22,4,26,0.01
2013-2-9,27,17,10,18,12,6,87,79,62,30.42,30.12,13,2,16,0.05
2013-2-10,48,26,8,26,15,4,87,67,37,30.40,29.98,7,1,11,0.10
2013-2-11,48,37,31,42,31,22,95,80,58,29.98,29.61,28,6,33,0.16
2013-2-12,31,28,20,24,22,17,88,79,74,30.01,29.82,20,6,25,0.00
2013-2-13,41,29,20,26,22,17,90,78,52,29.93,29.70,10,1,12,0.00
2013-2-14,34,28,21,32,26,18,98,89,84,29.92,29.82,9,2,14,0.10
2013-2-15,34,30,21,32,23,15,92,77,66,30.05,29.85,22,5,22,0.02
2013-2-16,25,18,9,18,10,2,88,71,50,30.06,29.93,14,1,14,0.01
2013-2-17,18,12,6,12,7,1,87,79,63,30.26,29.93,22,3,26,0.00
2013-2-18,37,21,4,25,11,0,86,68,43,30.32,29.92,11,1,11,0.00
2013-2-19,39,31,16,35,26,11,93,84,64,29.92,29.60,23,6,30,0.39
2013-2-20,17,15,13,12,10,8,86,82,71,30.18,29.85,23,8,25,0.00
2013-2-21,22,16,11,13,11,7,92,81,67,30.40,30.15,14,3,19,0.01
2013-2-22,29,23,13,27,19,10,92,85,70,30.36,30.02,10,2,16,0.00
2013-2-23,36,30,26,32,28,22,93,90,84,30.03,29.86,6,1,7,0.08
2013-2-24,27,26,24,22,20,17,88,80,72,30.13,29.85,19,4,23,0.00
2013-2-25,38,28,18,23,20,16,91,75,51,30.25,30.12,6,1,9,0.01
2013-2-26,37,31,24,31,25,18,93,80,65,30.15,29.61,10,2,15,0.47
2013-2-27,36,33,31,34,32,30,94,93,91,29.63,29.55,15,2,17,0.43
2013-2-28,32,30,29,30,28,26,94,92,89,29.77,29.55,11,3,15,0.09